sensor_id;sensor_type;location;lat;lon;timestamp;P1;durP1;ratioP1;P2;durP2;ratioP2
55589;SDS011;41452;42.780;23.116;2022-12-29T00:02:04;30.63;;;15.32;;
55589;SDS011;41452;42.780;23.116;2022-12-29T00:04:29;29.88;;;14.95;;
55589;SDS011;41452;42.780;23.116;2022-12-29T00:06:55;25.15;;;14.60;;
55589;SDS011;41452;42.780;23.116;2022-12-29T00:09:21;27.25;;;13.73;;
55589;SDS011;41452;42.780;23.116;2022-12-29T00:11:46;24.48;;;12.23;;
55589;SDS011;41452;42.780;23.116;2022-12-29T00:14:12;28.52;;;15.57;;
55589;SDS011;41452;42.780;23.116;2022-12-29T00:16:56;30.73;;;14.77;;
55589;SDS011;41452;42.780;23.116;2022-12-29T00:19:22;30.67;;;15.02;;
55589;SDS011;41452;42.780;23.116;2022-12-29T00:24:53;29.50;;;14.82;;
55589;SDS011;41452;42.780;23.116;2022-12-29T00:27:18;34.15;;;16.25;;
55589;SDS011;41452;42.780;23.116;2022-12-29T00:30:02;27.50;;;14.70;;
55589;SDS011;41452;42.780;23.116;2022-12-29T00:32:48;29.45;;;14.93;;
55589;SDS011;41452;42.780;23.116;2022-12-29T00:35:41;31.83;;;15.68;;
55589;SDS011;41452;42.780;23.116;2022-12-29T00:38:12;29.27;;;14.93;;
55589;SDS011;41452;42.780;23.116;2022-12-29T00:43:42;26.92;;;13.75;;
55589;SDS011;41452;42.780;23.116;2022-12-29T00:46:26;30.65;;;16.25;;
55589;SDS011;41452;42.780;23.116;2022-12-29T00:48:51;27.52;;;14.75;;
55589;SDS011;41452;42.780;23.116;2022-12-29T00:51:35;26.60;;;15.50;;
55589;SDS011;41452;42.780;23.116;2022-12-29T00:54:01;27.33;;;15.65;;
55589;SDS011;41452;42.780;23.116;2022-12-29T00:56:26;25.98;;;14.82;;
55589;SDS011;41452;42.780;23.116;2022-12-29T00:58:51;29.35;;;15.68;;
55589;SDS011;41452;42.780;23.116;2022-12-29T01:01:17;27.08;;;14.70;;
55589;SDS011;41452;42.780;23.116;2022-12-29T01:03:42;26.05;;;14.75;;
55589;SDS011;41452;42.780;23.116;2022-12-29T01:06:08;29.23;;;15.60;;
55589;SDS011;41452;42.780;23.116;2022-12-29T01:08:35;28.33;;;15.25;;
55589;SDS011;41452;42.780;23.116;2022-12-29T01:11:10;26.05;;;14.25;;
55589;SDS011;41452;42.780;23.116;2022-12-29T01:13:36;27.50;;;14.32;;
55589;SDS011;41452;42.780;23.116;2022-12-29T01:16:03;27.67;;;14.27;;
55589;SDS011;41452;42.780;23.116;2022-12-29T01:18:29;28.52;;;14.95;;
55589;SDS011;41452;42.780;23.116;2022-12-29T01:20:59;26.75;;;15.15;;
55589;SDS011;41452;42.780;23.116;2022-12-29T01:23:31;27.75;;;14.90;;
55589;SDS011;41452;42.780;23.116;2022-12-29T01:25:57;34.88;;;15.52;;
55589;SDS011;41452;42.780;23.116;2022-12-29T01:28:22;25.55;;;13.98;;
55589;SDS011;41452;42.780;23.116;2022-12-29T01:30:48;28.95;;;14.93;;
55589;SDS011;41452;42.780;23.116;2022-12-29T01:33:13;24.40;;;13.75;;
55589;SDS011;41452;42.780;23.116;2022-12-29T01:35:39;25.10;;;13.57;;
55589;SDS011;41452;42.780;23.116;2022-12-29T01:38:04;23.17;;;13.10;;
55589;SDS011;41452;42.780;23.116;2022-12-29T01:40:30;28.85;;;16.48;;
55589;SDS011;41452;42.780;23.116;2022-12-29T01:42:55;26.40;;;14.43;;
55589;SDS011;41452;42.780;23.116;2022-12-29T01:45:21;22.73;;;13.10;;
55589;SDS011;41452;42.780;23.116;2022-12-29T01:47:51;25.92;;;14.10;;
55589;SDS011;41452;42.780;23.116;2022-12-29T01:50:26;27.95;;;12.95;;
55589;SDS011;41452;42.780;23.116;2022-12-29T01:55:32;23.10;;;12.52;;
55589;SDS011;41452;42.780;23.116;2022-12-29T01:58:03;20.08;;;12.60;;
55589;SDS011;41452;42.780;23.116;2022-12-29T02:00:31;24.38;;;12.80;;
55589;SDS011;41452;42.780;23.116;2022-12-29T02:02:57;21.95;;;12.68;;
55589;SDS011;41452;42.780;23.116;2022-12-29T02:07:56;24.02;;;12.23;;
55589;SDS011;41452;42.780;23.116;2022-12-29T02:10:23;21.52;;;12.48;;
55589;SDS011;41452;42.780;23.116;2022-12-29T02:12:51;21.92;;;13.60;;
55589;SDS011;41452;42.780;23.116;2022-12-29T02:15:17;24.25;;;13.40;;
55589;SDS011;41452;42.780;23.116;2022-12-29T02:29:33;20.77;;;11.90;;
55589;SDS011;41452;42.780;23.116;2022-12-29T02:40:58;18.90;;;11.38;;
55589;SDS011;41452;42.780;23.116;2022-12-29T02:43:36;22.23;;;11.52;;
55589;SDS011;41452;42.780;23.116;2022-12-29T02:46:17;18.77;;;10.60;;
55589;SDS011;41452;42.780;23.116;2022-12-29T02:51:55;29.95;;;11.95;;
55589;SDS011;41452;42.780;23.116;2022-12-29T02:54:25;21.08;;;11.88;;
55589;SDS011;41452;42.780;23.116;2022-12-29T02:59:51;24.58;;;13.13;;
55589;SDS011;41452;42.780;23.116;2022-12-29T03:07:56;29.45;;;16.30;;
55589;SDS011;41452;42.780;23.116;2022-12-29T03:13:12;27.10;;;14.70;;
55589;SDS011;41452;42.780;23.116;2022-12-29T03:16:10;27.73;;;14.00;;
55589;SDS011;41452;42.780;23.116;2022-12-29T03:21:17;28.40;;;14.35;;
55589;SDS011;41452;42.780;23.116;2022-12-29T03:24:09;35.67;;;19.42;;
55589;SDS011;41452;42.780;23.116;2022-12-29T03:26:36;39.63;;;19.77;;
55589;SDS011;41452;42.780;23.116;2022-12-29T03:29:02;31.42;;;15.70;;
55589;SDS011;41452;42.780;23.116;2022-12-29T03:31:31;26.63;;;14.30;;
55589;SDS011;41452;42.780;23.116;2022-12-29T03:33:56;29.83;;;14.55;;
55589;SDS011;41452;42.780;23.116;2022-12-29T03:36:26;28.52;;;13.85;;
55589;SDS011;41452;42.780;23.116;2022-12-29T03:39:02;25.63;;;15.13;;
55589;SDS011;41452;42.780;23.116;2022-12-29T03:41:34;26.70;;;14.90;;
55589;SDS011;41452;42.780;23.116;2022-12-29T03:44:00;24.75;;;13.63;;
55589;SDS011;41452;42.780;23.116;2022-12-29T03:46:26;25.00;;;14.90;;
55589;SDS011;41452;42.780;23.116;2022-12-29T03:48:51;28.27;;;14.23;;
55589;SDS011;41452;42.780;23.116;2022-12-29T03:51:17;22.38;;;14.55;;
55589;SDS011;41452;42.780;23.116;2022-12-29T03:53:42;25.05;;;13.43;;
55589;SDS011;41452;42.780;23.116;2022-12-29T03:56:07;20.85;;;11.63;;
55589;SDS011;41452;42.780;23.116;2022-12-29T03:58:33;23.08;;;11.43;;
55589;SDS011;41452;42.780;23.116;2022-12-29T04:00:59;21.85;;;12.23;;
55589;SDS011;41452;42.780;23.116;2022-12-29T04:03:25;20.00;;;10.88;;
55589;SDS011;41452;42.780;23.116;2022-12-29T04:05:50;21.33;;;11.38;;
55589;SDS011;41452;42.780;23.116;2022-12-29T04:08:15;20.67;;;10.35;;
55589;SDS011;41452;42.780;23.116;2022-12-29T04:10:41;18.58;;;9.85;;
55589;SDS011;41452;42.780;23.116;2022-12-29T04:13:06;20.95;;;10.68;;
55589;SDS011;41452;42.780;23.116;2022-12-29T04:15:31;21.38;;;10.63;;
55589;SDS011;41452;42.780;23.116;2022-12-29T04:17:57;19.52;;;10.63;;
55589;SDS011;41452;42.780;23.116;2022-12-29T04:20:22;19.45;;;9.73;;
55589;SDS011;41452;42.780;23.116;2022-12-29T04:23:06;23.25;;;10.35;;
55589;SDS011;41452;42.780;23.116;2022-12-29T04:25:32;16.77;;;10.32;;
55589;SDS011;41452;42.780;23.116;2022-12-29T04:27:58;17.38;;;9.95;;
55589;SDS011;41452;42.780;23.116;2022-12-29T04:30:24;23.05;;;10.90;;
55589;SDS011;41452;42.780;23.116;2022-12-29T04:32:50;25.98;;;10.40;;
55589;SDS011;41452;42.780;23.116;2022-12-29T04:35:15;21.35;;;10.20;;
55589;SDS011;41452;42.780;23.116;2022-12-29T04:37:41;24.50;;;13.25;;
55589;SDS011;41452;42.780;23.116;2022-12-29T04:40:06;31.95;;;15.05;;
55589;SDS011;41452;42.780;23.116;2022-12-29T04:42:32;42.10;;;17.65;;
55589;SDS011;41452;42.780;23.116;2022-12-29T04:44:58;30.67;;;15.75;;
55589;SDS011;41452;42.780;23.116;2022-12-29T04:47:23;33.97;;;17.10;;
55589;SDS011;41452;42.780;23.116;2022-12-29T04:49:48;36.72;;;15.85;;
55589;SDS011;41452;42.780;23.116;2022-12-29T04:52:14;25.23;;;12.30;;
55589;SDS011;41452;42.780;23.116;2022-12-29T04:54:39;26.67;;;11.95;;
55589;SDS011;41452;42.780;23.116;2022-12-29T04:57:05;27.00;;;13.88;;
55589;SDS011;41452;42.780;23.116;2022-12-29T04:59:30;25.30;;;13.07;;
55589;SDS011;41452;42.780;23.116;2022-12-29T05:01:55;25.60;;;11.65;;
55589;SDS011;41452;42.780;23.116;2022-12-29T05:04:21;25.95;;;11.63;;
55589;SDS011;41452;42.780;23.116;2022-12-29T05:06:47;19.45;;;11.38;;
55589;SDS011;41452;42.780;23.116;2022-12-29T05:09:12;24.02;;;11.45;;
55589;SDS011;41452;42.780;23.116;2022-12-29T05:11:38;25.70;;;11.27;;
55589;SDS011;41452;42.780;23.116;2022-12-29T05:14:03;24.52;;;11.50;;
55589;SDS011;41452;42.780;23.116;2022-12-29T05:16:28;20.10;;;11.02;;
55589;SDS011;41452;42.780;23.116;2022-12-29T05:18:54;20.05;;;11.27;;
55589;SDS011;41452;42.780;23.116;2022-12-29T05:21:19;18.83;;;11.07;;
55589;SDS011;41452;42.780;23.116;2022-12-29T05:23:45;19.40;;;10.85;;
55589;SDS011;41452;42.780;23.116;2022-12-29T05:26:10;21.67;;;10.93;;
55589;SDS011;41452;42.780;23.116;2022-12-29T05:28:35;19.08;;;11.85;;
55589;SDS011;41452;42.780;23.116;2022-12-29T05:31:01;17.92;;;9.93;;
55589;SDS011;41452;42.780;23.116;2022-12-29T05:33:26;20.40;;;10.38;;
55589;SDS011;41452;42.780;23.116;2022-12-29T05:35:51;20.20;;;10.68;;
55589;SDS011;41452;42.780;23.116;2022-12-29T05:38:17;23.80;;;11.88;;
55589;SDS011;41452;42.780;23.116;2022-12-29T05:40:42;25.75;;;11.55;;
55589;SDS011;41452;42.780;23.116;2022-12-29T05:43:08;20.92;;;11.68;;
55589;SDS011;41452;42.780;23.116;2022-12-29T05:45:35;23.85;;;11.55;;
55589;SDS011;41452;42.780;23.116;2022-12-29T05:48:00;17.20;;;10.40;;
55589;SDS011;41452;42.780;23.116;2022-12-29T05:50:26;23.17;;;12.07;;
55589;SDS011;41452;42.780;23.116;2022-12-29T05:52:51;20.25;;;11.38;;
55589;SDS011;41452;42.780;23.116;2022-12-29T05:55:17;23.55;;;13.07;;
55589;SDS011;41452;42.780;23.116;2022-12-29T05:57:42;19.02;;;11.70;;
55589;SDS011;41452;42.780;23.116;2022-12-29T06:00:07;17.90;;;10.77;;
55589;SDS011;41452;42.780;23.116;2022-12-29T06:02:33;20.48;;;11.18;;
55589;SDS011;41452;42.780;23.116;2022-12-29T06:04:59;19.42;;;11.60;;
55589;SDS011;41452;42.780;23.116;2022-12-29T06:07:24;20.52;;;11.80;;
55589;SDS011;41452;42.780;23.116;2022-12-29T06:09:49;23.42;;;11.27;;
55589;SDS011;41452;42.780;23.116;2022-12-29T06:12:15;25.30;;;13.13;;
55589;SDS011;41452;42.780;23.116;2022-12-29T06:14:41;22.85;;;12.63;;
55589;SDS011;41452;42.780;23.116;2022-12-29T06:17:06;22.73;;;12.15;;
55589;SDS011;41452;42.780;23.116;2022-12-29T06:19:32;19.48;;;11.02;;
55589;SDS011;41452;42.780;23.116;2022-12-29T06:21:57;20.20;;;11.50;;
55589;SDS011;41452;42.780;23.116;2022-12-29T06:24:22;18.63;;;11.45;;
55589;SDS011;41452;42.780;23.116;2022-12-29T06:26:48;21.23;;;11.02;;
55589;SDS011;41452;42.780;23.116;2022-12-29T06:29:13;23.75;;;11.02;;
55589;SDS011;41452;42.780;23.116;2022-12-29T06:31:42;18.83;;;11.07;;
55589;SDS011;41452;42.780;23.116;2022-12-29T06:34:10;18.67;;;12.38;;
55589;SDS011;41452;42.780;23.116;2022-12-29T06:36:36;21.13;;;10.90;;
55589;SDS011;41452;42.780;23.116;2022-12-29T06:39:01;21.60;;;12.80;;
55589;SDS011;41452;42.780;23.116;2022-12-29T06:41:27;27.48;;;12.80;;
55589;SDS011;41452;42.780;23.116;2022-12-29T06:43:52;26.73;;;13.75;;
55589;SDS011;41452;42.780;23.116;2022-12-29T06:46:17;24.98;;;13.80;;
55589;SDS011;41452;42.780;23.116;2022-12-29T06:48:43;26.38;;;12.98;;
55589;SDS011;41452;42.780;23.116;2022-12-29T06:51:08;20.85;;;12.20;;
55589;SDS011;41452;42.780;23.116;2022-12-29T06:53:34;23.05;;;12.60;;
55589;SDS011;41452;42.780;23.116;2022-12-29T06:55:59;28.38;;;13.48;;
55589;SDS011;41452;42.780;23.116;2022-12-29T06:58:24;25.92;;;13.35;;
55589;SDS011;41452;42.780;23.116;2022-12-29T07:00:50;32.67;;;16.52;;
55589;SDS011;41452;42.780;23.116;2022-12-29T07:03:15;29.40;;;16.17;;
55589;SDS011;41452;42.780;23.116;2022-12-29T07:05:41;32.10;;;16.52;;
55589;SDS011;41452;42.780;23.116;2022-12-29T07:08:06;29.58;;;16.17;;
55589;SDS011;41452;42.780;23.116;2022-12-29T07:10:31;28.73;;;15.68;;
55589;SDS011;41452;42.780;23.116;2022-12-29T07:12:57;29.98;;;15.77;;
55589;SDS011;41452;42.780;23.116;2022-12-29T07:15:22;31.05;;;16.23;;
55589;SDS011;41452;42.780;23.116;2022-12-29T07:17:48;33.40;;;16.63;;
55589;SDS011;41452;42.780;23.116;2022-12-29T07:20:14;38.50;;;18.35;;
55589;SDS011;41452;42.780;23.116;2022-12-29T07:22:41;66.22;;;26.08;;
55589;SDS011;41452;42.780;23.116;2022-12-29T07:25:06;72.50;;;30.48;;
55589;SDS011;41452;42.780;23.116;2022-12-29T07:27:32;76.53;;;31.25;;
55589;SDS011;41452;42.780;23.116;2022-12-29T07:29:57;54.88;;;23.65;;
55589;SDS011;41452;42.780;23.116;2022-12-29T07:32:23;42.30;;;20.73;;
55589;SDS011;41452;42.780;23.116;2022-12-29T07:34:48;34.97;;;18.58;;
55589;SDS011;41452;42.780;23.116;2022-12-29T07:37:17;36.97;;;17.02;;
55589;SDS011;41452;42.780;23.116;2022-12-29T07:39:42;25.60;;;13.40;;
55589;SDS011;41452;42.780;23.116;2022-12-29T07:42:08;41.47;;;20.95;;
55589;SDS011;41452;42.780;23.116;2022-12-29T07:44:34;31.40;;;16.73;;
55589;SDS011;41452;42.780;23.116;2022-12-29T07:46:59;30.92;;;16.17;;
55589;SDS011;41452;42.780;23.116;2022-12-29T07:49:24;30.27;;;15.48;;
55589;SDS011;41452;42.780;23.116;2022-12-29T07:51:50;27.67;;;14.18;;
55589;SDS011;41452;42.780;23.116;2022-12-29T07:54:15;32.38;;;15.60;;
55589;SDS011;41452;42.780;23.116;2022-12-29T07:56:43;33.50;;;15.18;;
55589;SDS011;41452;42.780;23.116;2022-12-29T07:59:09;32.95;;;15.52;;
55589;SDS011;41452;42.780;23.116;2022-12-29T08:01:34;30.42;;;14.98;;
55589;SDS011;41452;42.780;23.116;2022-12-29T08:03:59;27.95;;;14.80;;
55589;SDS011;41452;42.780;23.116;2022-12-29T08:06:25;52.10;;;24.30;;
55589;SDS011;41452;42.780;23.116;2022-12-29T08:08:50;32.35;;;15.60;;
55589;SDS011;41452;42.780;23.116;2022-12-29T08:11:15;27.02;;;15.00;;
55589;SDS011;41452;42.780;23.116;2022-12-29T08:13:41;30.92;;;16.05;;
55589;SDS011;41452;42.780;23.116;2022-12-29T08:16:06;32.47;;;16.17;;
55589;SDS011;41452;42.780;23.116;2022-12-29T08:18:32;29.17;;;15.07;;
55589;SDS011;41452;42.780;23.116;2022-12-29T08:21:01;28.50;;;14.43;;
55589;SDS011;41452;42.780;23.116;2022-12-29T08:23:27;27.52;;;14.32;;
55589;SDS011;41452;42.780;23.116;2022-12-29T08:25:56;28.77;;;14.85;;
55589;SDS011;41452;42.780;23.116;2022-12-29T08:28:23;25.40;;;13.77;;
55589;SDS011;41452;42.780;23.116;2022-12-29T08:30:48;27.85;;;13.77;;
55589;SDS011;41452;42.780;23.116;2022-12-29T08:33:13;31.08;;;14.73;;
55589;SDS011;41452;42.780;23.116;2022-12-29T08:35:39;35.78;;;13.63;;
55589;SDS011;41452;42.780;23.116;2022-12-29T08:38:04;57.30;;;21.90;;
55589;SDS011;41452;42.780;23.116;2022-12-29T08:40:29;34.83;;;16.02;;
55589;SDS011;41452;42.780;23.116;2022-12-29T08:42:55;26.20;;;11.38;;
55589;SDS011;41452;42.780;23.116;2022-12-29T08:45:20;19.92;;;11.15;;
55589;SDS011;41452;42.780;23.116;2022-12-29T08:47:46;18.35;;;9.82;;
55589;SDS011;41452;42.780;23.116;2022-12-29T08:50:11;23.95;;;12.90;;
55589;SDS011;41452;42.780;23.116;2022-12-29T08:52:36;19.73;;;11.15;;
55589;SDS011;41452;42.780;23.116;2022-12-29T08:55:02;24.02;;;12.13;;
55589;SDS011;41452;42.780;23.116;2022-12-29T08:57:27;24.70;;;11.07;;
55589;SDS011;41452;42.780;23.116;2022-12-29T08:59:53;20.90;;;11.18;;
55589;SDS011;41452;42.780;23.116;2022-12-29T09:02:18;23.65;;;11.65;;
55589;SDS011;41452;42.780;23.116;2022-12-29T09:04:43;103.88;;;35.28;;
55589;SDS011;41452;42.780;23.116;2022-12-29T09:07:09;42.00;;;19.08;;
55589;SDS011;41452;42.780;23.116;2022-12-29T09:09:34;30.25;;;13.70;;
55589;SDS011;41452;42.780;23.116;2022-12-29T09:12:00;21.88;;;12.38;;
55589;SDS011;41452;42.780;23.116;2022-12-29T09:14:25;21.75;;;12.55;;
55589;SDS011;41452;42.780;23.116;2022-12-29T09:16:51;26.25;;;13.77;;
55589;SDS011;41452;42.780;23.116;2022-12-29T09:19:35;18.30;;;10.05;;
55589;SDS011;41452;42.780;23.116;2022-12-29T09:22:01;23.27;;;11.98;;
55589;SDS011;41452;42.780;23.116;2022-12-29T09:24:26;23.00;;;11.32;;
55589;SDS011;41452;42.780;23.116;2022-12-29T09:26:52;22.35;;;12.15;;
55589;SDS011;41452;42.780;23.116;2022-12-29T09:29:17;22.42;;;11.50;;
55589;SDS011;41452;42.780;23.116;2022-12-29T09:31:42;24.10;;;12.55;;
55589;SDS011;41452;42.780;23.116;2022-12-29T09:34:08;23.00;;;12.63;;
55589;SDS011;41452;42.780;23.116;2022-12-29T09:36:33;25.77;;;13.52;;
55589;SDS011;41452;42.780;23.116;2022-12-29T09:38:58;23.40;;;12.52;;
55589;SDS011;41452;42.780;23.116;2022-12-29T09:41:29;22.27;;;13.25;;
55589;SDS011;41452;42.780;23.116;2022-12-29T09:44:23;23.27;;;12.00;;
55589;SDS011;41452;42.780;23.116;2022-12-29T09:46:56;19.83;;;10.15;;
55589;SDS011;41452;42.780;23.116;2022-12-29T09:49:24;21.63;;;11.25;;
55589;SDS011;41452;42.780;23.116;2022-12-29T09:52:05;22.38;;;11.32;;
55589;SDS011;41452;42.780;23.116;2022-12-29T09:55:04;19.13;;;11.88;;
55589;SDS011;41452;42.780;23.116;2022-12-29T09:57:47;21.65;;;11.35;;
55589;SDS011;41452;42.780;23.116;2022-12-29T10:00:19;23.83;;;11.63;;
55589;SDS011;41452;42.780;23.116;2022-12-29T10:05:31;22.73;;;11.32;;
55589;SDS011;41452;42.780;23.116;2022-12-29T10:08:08;19.73;;;11.57;;
55589;SDS011;41452;42.780;23.116;2022-12-29T10:10:56;22.40;;;12.60;;
55589;SDS011;41452;42.780;23.116;2022-12-29T10:13:32;24.48;;;13.18;;
55589;SDS011;41452;42.780;23.116;2022-12-29T10:16:15;24.85;;;12.27;;
55589;SDS011;41452;42.780;23.116;2022-12-29T10:24:14;26.45;;;12.38;;
55589;SDS011;41452;42.780;23.116;2022-12-29T10:26:42;27.60;;;13.63;;
55589;SDS011;41452;42.780;23.116;2022-12-29T10:29:14;27.92;;;12.73;;
55589;SDS011;41452;42.780;23.116;2022-12-29T10:31:44;23.25;;;13.00;;
55589;SDS011;41452;42.780;23.116;2022-12-29T10:34:31;23.52;;;14.23;;
55589;SDS011;41452;42.780;23.116;2022-12-29T10:44:47;27.67;;;14.50;;
55589;SDS011;41452;42.780;23.116;2022-12-29T10:47:16;24.70;;;12.52;;
55589;SDS011;41452;42.780;23.116;2022-12-29T10:49:46;27.27;;;14.10;;
55589;SDS011;41452;42.780;23.116;2022-12-29T10:52:13;28.75;;;13.73;;
55589;SDS011;41452;42.780;23.116;2022-12-29T10:54:54;34.75;;;14.80;;
55589;SDS011;41452;42.780;23.116;2022-12-29T11:00:16;25.73;;;14.48;;
55589;SDS011;41452;42.780;23.116;2022-12-29T11:08:39;23.77;;;12.32;;
55589;SDS011;41452;42.780;23.116;2022-12-29T11:11:21;24.33;;;13.10;;
55589;SDS011;41452;42.780;23.116;2022-12-29T11:13:51;23.73;;;12.70;;
55589;SDS011;41452;42.780;23.116;2022-12-29T11:16:32;33.50;;;14.93;;
55589;SDS011;41452;42.780;23.116;2022-12-29T11:18:59;29.23;;;14.07;;
55589;SDS011;41452;42.780;23.116;2022-12-29T11:26:48;40.80;;;18.65;;
55589;SDS011;41452;42.780;23.116;2022-12-29T11:31:44;24.10;;;12.68;;
55589;SDS011;41452;42.780;23.116;2022-12-29T11:36:52;27.05;;;14.00;;
55589;SDS011;41452;42.780;23.116;2022-12-29T11:40:05;26.90;;;12.93;;
55589;SDS011;41452;42.780;23.116;2022-12-29T11:42:22;22.10;;;12.27;;
55589;SDS011;41452;42.780;23.116;2022-12-29T11:45:03;22.30;;;12.35;;
55589;SDS011;41452;42.780;23.116;2022-12-29T11:47:31;25.90;;;12.45;;
55589;SDS011;41452;42.780;23.116;2022-12-29T11:50:02;21.05;;;12.07;;
55589;SDS011;41452;42.780;23.116;2022-12-29T11:52:31;24.88;;;12.05;;
55589;SDS011;41452;42.780;23.116;2022-12-29T11:55:00;34.78;;;15.95;;
55589;SDS011;41452;42.780;23.116;2022-12-29T11:57:27;26.75;;;13.30;;
55589;SDS011;41452;42.780;23.116;2022-12-29T11:59:54;34.20;;;16.77;;
55589;SDS011;41452;42.780;23.116;2022-12-29T12:02:40;39.05;;;19.10;;
55589;SDS011;41452;42.780;23.116;2022-12-29T12:16:27;20.55;;;11.43;;
55589;SDS011;41452;42.780;23.116;2022-12-29T12:19:43;17.60;;;10.05;;
55589;SDS011;41452;42.780;23.116;2022-12-29T12:22:19;21.63;;;12.02;;
55589;SDS011;41452;42.780;23.116;2022-12-29T12:25:33;23.70;;;11.02;;
55589;SDS011;41452;42.780;23.116;2022-12-29T12:27:43;19.13;;;11.55;;
55589;SDS011;41452;42.780;23.116;2022-12-29T12:30:18;29.42;;;15.80;;
55589;SDS011;41452;42.780;23.116;2022-12-29T12:32:51;28.00;;;13.50;;
55589;SDS011;41452;42.780;23.116;2022-12-29T12:40:58;22.30;;;10.85;;
55589;SDS011;41452;42.780;23.116;2022-12-29T12:43:32;20.38;;;10.80;;
55589;SDS011;41452;42.780;23.116;2022-12-29T12:57:10;21.27;;;12.40;;
55589;SDS011;41452;42.780;23.116;2022-12-29T13:00:08;23.20;;;11.98;;
55589;SDS011;41452;42.780;23.116;2022-12-29T13:08:05;22.67;;;12.73;;
55589;SDS011;41452;42.780;23.116;2022-12-29T13:10:50;22.85;;;12.15;;
55589;SDS011;41452;42.780;23.116;2022-12-29T13:26:39;22.92;;;13.05;;
55589;SDS011;41452;42.780;23.116;2022-12-29T13:29:18;18.77;;;11.82;;
55589;SDS011;41452;42.780;23.116;2022-12-29T13:32:07;21.52;;;11.57;;
55589;SDS011;41452;42.780;23.116;2022-12-29T13:37:22;21.58;;;11.90;;
55589;SDS011;41452;42.780;23.116;2022-12-29T13:39:55;21.98;;;12.02;;
55589;SDS011;41452;42.780;23.116;2022-12-29T13:42:26;18.65;;;11.25;;
55589;SDS011;41452;42.780;23.116;2022-12-29T13:44:54;22.08;;;12.23;;
55589;SDS011;41452;42.780;23.116;2022-12-29T13:50:01;23.38;;;11.90;;
55589;SDS011;41452;42.780;23.116;2022-12-29T13:57:44;22.10;;;11.85;;
55589;SDS011;41452;42.780;23.116;2022-12-29T14:00:36;23.02;;;12.07;;
55589;SDS011;41452;42.780;23.116;2022-12-29T14:05:47;23.30;;;12.35;;
55589;SDS011;41452;42.780;23.116;2022-12-29T14:08:30;25.95;;;13.40;;
55589;SDS011;41452;42.780;23.116;2022-12-29T14:11:00;24.83;;;12.88;;
55589;SDS011;41452;42.780;23.116;2022-12-29T14:13:33;22.73;;;12.32;;
55589;SDS011;41452;42.780;23.116;2022-12-29T14:16:04;21.65;;;12.95;;
55589;SDS011;41452;42.780;23.116;2022-12-29T14:18:34;18.25;;;11.27;;
55589;SDS011;41452;42.780;23.116;2022-12-29T14:21:10;22.05;;;12.38;;
55589;SDS011;41452;42.780;23.116;2022-12-29T14:23:49;23.77;;;12.30;;
55589;SDS011;41452;42.780;23.116;2022-12-29T14:28:56;20.83;;;11.82;;
55589;SDS011;41452;42.780;23.116;2022-12-29T14:31:40;16.60;;;10.55;;
55589;SDS011;41452;42.780;23.116;2022-12-29T14:36:34;22.48;;;12.25;;
55589;SDS011;41452;42.780;23.116;2022-12-29T14:39:49;20.90;;;11.43;;
55589;SDS011;41452;42.780;23.116;2022-12-29T14:42:28;22.90;;;12.52;;
55589;SDS011;41452;42.780;23.116;2022-12-29T14:45:23;19.25;;;10.80;;
55589;SDS011;41452;42.780;23.116;2022-12-29T14:47:47;25.50;;;12.43;;
55589;SDS011;41452;42.780;23.116;2022-12-29T14:50:15;20.25;;;11.65;;
55589;SDS011;41452;42.780;23.116;2022-12-29T15:00:41;23.05;;;13.68;;
55589;SDS011;41452;42.780;23.116;2022-12-29T15:05:57;17.23;;;10.35;;
55589;SDS011;41452;42.780;23.116;2022-12-29T15:08:32;25.20;;;14.52;;
55589;SDS011;41452;42.780;23.116;2022-12-29T15:11:09;26.80;;;15.77;;
55589;SDS011;41452;42.780;23.116;2022-12-29T15:13:40;25.08;;;13.40;;
55589;SDS011;41452;42.780;23.116;2022-12-29T15:16:21;38.85;;;18.10;;
55589;SDS011;41452;42.780;23.116;2022-12-29T15:18:49;35.05;;;18.10;;
55589;SDS011;41452;42.780;23.116;2022-12-29T15:21:15;34.88;;;18.27;;
55589;SDS011;41452;42.780;23.116;2022-12-29T15:23:42;31.48;;;17.80;;
55589;SDS011;41452;42.780;23.116;2022-12-29T15:26:10;26.73;;;14.90;;
55589;SDS011;41452;42.780;23.116;2022-12-29T15:28:40;27.83;;;13.30;;
55589;SDS011;41452;42.780;23.116;2022-12-29T15:31:11;24.52;;;13.05;;
55589;SDS011;41452;42.780;23.116;2022-12-29T15:34:00;24.90;;;12.88;;
55589;SDS011;41452;42.780;23.116;2022-12-29T15:36:37;27.90;;;12.73;;
55589;SDS011;41452;42.780;23.116;2022-12-29T15:39:20;38.08;;;16.50;;
55589;SDS011;41452;42.780;23.116;2022-12-29T15:44:48;46.67;;;17.52;;
55589;SDS011;41452;42.780;23.116;2022-12-29T15:49:50;35.88;;;14.05;;
55589;SDS011;41452;42.780;23.116;2022-12-29T15:52:21;24.70;;;11.02;;
55589;SDS011;41452;42.780;23.116;2022-12-29T15:54:49;24.95;;;12.55;;
55589;SDS011;41452;42.780;23.116;2022-12-29T15:57:21;20.60;;;9.65;;
55589;SDS011;41452;42.780;23.116;2022-12-29T15:59:49;15.98;;;9.35;;
55589;SDS011;41452;42.780;23.116;2022-12-29T16:02:15;15.00;;;8.48;;
55589;SDS011;41452;42.780;23.116;2022-12-29T16:04:41;17.88;;;8.10;;
55589;SDS011;41452;42.780;23.116;2022-12-29T16:09:59;11.15;;;6.65;;
55589;SDS011;41452;42.780;23.116;2022-12-29T16:12:27;10.57;;;5.85;;
55589;SDS011;41452;42.780;23.116;2022-12-29T16:15:01;12.75;;;6.90;;
55589;SDS011;41452;42.780;23.116;2022-12-29T16:17:48;12.15;;;5.88;;
55589;SDS011;41452;42.780;23.116;2022-12-29T16:20:20;12.15;;;6.70;;
55589;SDS011;41452;42.780;23.116;2022-12-29T16:23:09;13.15;;;6.53;;
55589;SDS011;41452;42.780;23.116;2022-12-29T16:25:45;12.13;;;6.15;;
55589;SDS011;41452;42.780;23.116;2022-12-29T16:28:57;12.60;;;5.90;;
55589;SDS011;41452;42.780;23.116;2022-12-29T16:31:15;11.00;;;6.40;;
55589;SDS011;41452;42.780;23.116;2022-12-29T16:33:46;13.23;;;5.72;;
55589;SDS011;41452;42.780;23.116;2022-12-29T16:36:51;12.80;;;6.55;;
55589;SDS011;41452;42.780;23.116;2022-12-29T16:39:24;11.57;;;6.28;;
55589;SDS011;41452;42.780;23.116;2022-12-29T16:41:53;11.20;;;5.70;;
55589;SDS011;41452;42.780;23.116;2022-12-29T16:47:31;18.55;;;7.07;;
55589;SDS011;41452;42.780;23.116;2022-12-29T16:49:38;14.45;;;6.88;;
55589;SDS011;41452;42.780;23.116;2022-12-29T16:52:13;12.45;;;6.63;;
55589;SDS011;41452;42.780;23.116;2022-12-29T16:54:47;11.55;;;7.03;;
55589;SDS011;41452;42.780;23.116;2022-12-29T16:57:30;13.80;;;7.40;;
55589;SDS011;41452;42.780;23.116;2022-12-29T17:00:17;13.57;;;7.18;;
55589;SDS011;41452;42.780;23.116;2022-12-29T17:02:44;12.95;;;7.05;;
55589;SDS011;41452;42.780;23.116;2022-12-29T17:05:14;13.82;;;7.20;;
55589;SDS011;41452;42.780;23.116;2022-12-29T17:07:41;13.35;;;7.05;;
55589;SDS011;41452;42.780;23.116;2022-12-29T17:10:07;13.68;;;7.15;;
55589;SDS011;41452;42.780;23.116;2022-12-29T17:12:33;14.43;;;7.45;;
55589;SDS011;41452;42.780;23.116;2022-12-29T17:15:00;12.45;;;6.65;;
55589;SDS011;41452;42.780;23.116;2022-12-29T17:22:42;22.40;;;10.15;;
55589;SDS011;41452;42.780;23.116;2022-12-29T17:25:11;24.45;;;11.68;;